sensor_id;sensor_type;location;lat;lon;timestamp;P1;durP1;ratioP1;P2;durP2;ratioP2
54145;SDS011;65909;49.422;7.738;2023-06-22T00:02:24;5.75;;;4.30;;
54145;SDS011;65909;49.422;7.738;2023-06-22T00:04:50;6.88;;;4.63;;
54145;SDS011;65909;49.422;7.738;2023-06-22T00:07:15;6.88;;;4.70;;
54145;SDS011;65909;49.422;7.738;2023-06-22T00:09:40;5.80;;;4.60;;
54145;SDS011;65909;49.422;7.738;2023-06-22T00:12:06;8.20;;;4.57;;
54145;SDS011;65909;49.422;7.738;2023-06-22T00:14:32;5.20;;;4.40;;
54145;SDS011;65909;49.422;7.738;2023-06-22T00:16:57;4.53;;;4.00;;
54145;SDS011;65909;49.422;7.738;2023-06-22T00:19:24;5.75;;;4.93;;
54145;SDS011;65909;49.422;7.738;2023-06-22T00:21:52;5.50;;;4.22;;
54145;SDS011;65909;49.422;7.738;2023-06-22T00:24:20;5.88;;;4.53;;
54145;SDS011;65909;49.422;7.738;2023-06-22T00:26:47;5.85;;;4.30;;
54145;SDS011;65909;49.422;7.738;2023-06-22T00:29:14;7.35;;;4.95;;
54145;SDS011;65909;49.422;7.738;2023-06-22T00:31:39;6.47;;;4.45;;
54145;SDS011;65909;49.422;7.738;2023-06-22T00:34:05;6.32;;;4.82;;
54145;SDS011;65909;49.422;7.738;2023-06-22T00:36:31;6.25;;;4.90;;
54145;SDS011;65909;49.422;7.738;2023-06-22T00:38:57;5.88;;;4.72;;
54145;SDS011;65909;49.422;7.738;2023-06-22T00:41:22;7.97;;;5.20;;
54145;SDS011;65909;49.422;7.738;2023-06-22T00:43:48;6.65;;;4.80;;
54145;SDS011;65909;49.422;7.738;2023-06-22T00:46:13;5.40;;;4.50;;
54145;SDS011;65909;49.422;7.738;2023-06-22T00:48:39;6.75;;;5.18;;
54145;SDS011;65909;49.422;7.738;2023-06-22T00:51:08;5.80;;;4.68;;
54145;SDS011;65909;49.422;7.738;2023-06-22T00:53:35;6.35;;;4.85;;
54145;SDS011;65909;49.422;7.738;2023-06-22T00:56:02;6.43;;;4.68;;
54145;SDS011;65909;49.422;7.738;2023-06-22T00:58:28;7.32;;;4.97;;
54145;SDS011;65909;49.422;7.738;2023-06-22T01:00:54;6.63;;;4.75;;
54145;SDS011;65909;49.422;7.738;2023-06-22T01:03:19;6.05;;;4.40;;
54145;SDS011;65909;49.422;7.738;2023-06-22T01:05:45;7.18;;;5.15;;
54145;SDS011;65909;49.422;7.738;2023-06-22T01:08:23;5.75;;;4.60;;
54145;SDS011;65909;49.422;7.738;2023-06-22T01:11:03;5.80;;;4.50;;
54145;SDS011;65909;49.422;7.738;2023-06-22T01:14:04;6.53;;;5.22;;
54145;SDS011;65909;49.422;7.738;2023-06-22T01:16:35;7.47;;;4.82;;
54145;SDS011;65909;49.422;7.738;2023-06-22T01:19:18;6.57;;;5.15;;
54145;SDS011;65909;49.422;7.738;2023-06-22T01:21:54;6.60;;;5.00;;
54145;SDS011;65909;49.422;7.738;2023-06-22T01:24:30;8.05;;;5.03;;
54145;SDS011;65909;49.422;7.738;2023-06-22T01:27:17;9.10;;;5.57;;
54145;SDS011;65909;49.422;7.738;2023-06-22T01:29:56;19.00;;;7.88;;
54145;SDS011;65909;49.422;7.738;2023-06-22T01:32:25;10.90;;;7.32;;
54145;SDS011;65909;49.422;7.738;2023-06-22T01:34:57;12.13;;;8.52;;
54145;SDS011;65909;49.422;7.738;2023-06-22T01:37:24;14.45;;;8.73;;
54145;SDS011;65909;49.422;7.738;2023-06-22T01:39:50;14.48;;;8.18;;
54145;SDS011;65909;49.422;7.738;2023-06-22T01:42:16;15.80;;;9.23;;
54145;SDS011;65909;49.422;7.738;2023-06-22T01:44:42;15.82;;;9.70;;
54145;SDS011;65909;49.422;7.738;2023-06-22T01:47:08;16.35;;;10.98;;
54145;SDS011;65909;49.422;7.738;2023-06-22T01:49:34;15.35;;;11.43;;
54145;SDS011;65909;49.422;7.738;2023-06-22T01:51:59;14.77;;;11.13;;
54145;SDS011;65909;49.422;7.738;2023-06-22T01:54:25;15.15;;;12.05;;
54145;SDS011;65909;49.422;7.738;2023-06-22T01:56:50;16.00;;;11.73;;
54145;SDS011;65909;49.422;7.738;2023-06-22T02:02:04;17.23;;;11.52;;
54145;SDS011;65909;49.422;7.738;2023-06-22T02:04:41;15.85;;;12.15;;
54145;SDS011;65909;49.422;7.738;2023-06-22T02:07:12;18.60;;;12.77;;
54145;SDS011;65909;49.422;7.738;2023-06-22T02:09:41;16.52;;;12.43;;
54145;SDS011;65909;49.422;7.738;2023-06-22T02:12:10;16.98;;;12.60;;
54145;SDS011;65909;49.422;7.738;2023-06-22T02:14:37;17.75;;;12.63;;
54145;SDS011;65909;49.422;7.738;2023-06-22T02:17:04;16.85;;;13.65;;
54145;SDS011;65909;49.422;7.738;2023-06-22T02:19:32;15.60;;;11.77;;
54145;SDS011;65909;49.422;7.738;2023-06-22T02:22:01;18.17;;;11.73;;
54145;SDS011;65909;49.422;7.738;2023-06-22T02:24:26;17.70;;;12.75;;
54145;SDS011;65909;49.422;7.738;2023-06-22T02:26:51;20.23;;;11.93;;
54145;SDS011;65909;49.422;7.738;2023-06-22T02:29:17;16.80;;;11.90;;
54145;SDS011;65909;49.422;7.738;2023-06-22T02:31:44;18.33;;;12.27;;
54145;SDS011;65909;49.422;7.738;2023-06-22T02:34:10;17.88;;;13.27;;
54145;SDS011;65909;49.422;7.738;2023-06-22T02:36:35;16.60;;;12.20;;
54145;SDS011;65909;49.422;7.738;2023-06-22T02:39:01;17.88;;;12.68;;
54145;SDS011;65909;49.422;7.738;2023-06-22T02:41:28;19.25;;;12.48;;
54145;SDS011;65909;49.422;7.738;2023-06-22T02:43:53;18.33;;;11.98;;
54145;SDS011;65909;49.422;7.738;2023-06-22T02:46:19;15.55;;;11.88;;
54145;SDS011;65909;49.422;7.738;2023-06-22T02:48:44;16.70;;;11.90;;
54145;SDS011;65909;49.422;7.738;2023-06-22T02:51:10;16.45;;;11.35;;
54145;SDS011;65909;49.422;7.738;2023-06-22T02:53:35;15.10;;;11.93;;
54145;SDS011;65909;49.422;7.738;2023-06-22T02:56:04;15.00;;;11.18;;
54145;SDS011;65909;49.422;7.738;2023-06-22T02:58:32;15.90;;;11.65;;
54145;SDS011;65909;49.422;7.738;2023-06-22T03:01:03;16.05;;;11.57;;
54145;SDS011;65909;49.422;7.738;2023-06-22T03:03:29;15.98;;;11.73;;
54145;SDS011;65909;49.422;7.738;2023-06-22T03:05:55;17.55;;;11.60;;
54145;SDS011;65909;49.422;7.738;2023-06-22T03:08:20;18.63;;;12.35;;
54145;SDS011;65909;49.422;7.738;2023-06-22T03:10:46;19.70;;;12.82;;
54145;SDS011;65909;49.422;7.738;2023-06-22T03:13:11;16.63;;;11.98;;
54145;SDS011;65909;49.422;7.738;2023-06-22T03:15:36;15.95;;;11.82;;
54145;SDS011;65909;49.422;7.738;2023-06-22T03:18:02;17.00;;;11.75;;
54145;SDS011;65909;49.422;7.738;2023-06-22T03:20:27;15.15;;;11.90;;
54145;SDS011;65909;49.422;7.738;2023-06-22T03:22:58;16.17;;;12.27;;
54145;SDS011;65909;49.422;7.738;2023-06-22T03:25:24;17.40;;;13.45;;
54145;SDS011;65909;49.422;7.738;2023-06-22T03:27:49;16.35;;;12.77;;
54145;SDS011;65909;49.422;7.738;2023-06-22T03:30:14;15.88;;;11.60;;
54145;SDS011;65909;49.422;7.738;2023-06-22T03:32:40;16.77;;;13.25;;
54145;SDS011;65909;49.422;7.738;2023-06-22T03:35:05;14.68;;;11.95;;
54145;SDS011;65909;49.422;7.738;2023-06-22T03:37:31;16.35;;;12.05;;
54145;SDS011;65909;49.422;7.738;2023-06-22T03:39:56;17.15;;;12.23;;
54145;SDS011;65909;49.422;7.738;2023-06-22T03:42:22;15.50;;;11.98;;
54145;SDS011;65909;49.422;7.738;2023-06-22T03:44:47;16.92;;;12.77;;
54145;SDS011;65909;49.422;7.738;2023-06-22T03:47:13;14.60;;;12.25;;
54145;SDS011;65909;49.422;7.738;2023-06-22T03:49:38;16.45;;;12.55;;
54145;SDS011;65909;49.422;7.738;2023-06-22T03:52:04;16.67;;;12.20;;
54145;SDS011;65909;49.422;7.738;2023-06-22T03:54:30;17.23;;;12.70;;
54145;SDS011;65909;49.422;7.738;2023-06-22T03:56:58;19.13;;;13.23;;
54145;SDS011;65909;49.422;7.738;2023-06-22T03:59:24;16.08;;;13.48;;
54145;SDS011;65909;49.422;7.738;2023-06-22T04:01:50;15.80;;;12.13;;
54145;SDS011;65909;49.422;7.738;2023-06-22T04:04:16;16.55;;;11.50;;
54145;SDS011;65909;49.422;7.738;2023-06-22T04:06:45;17.02;;;12.18;;
54145;SDS011;65909;49.422;7.738;2023-06-22T04:09:11;16.17;;;12.00;;
54145;SDS011;65909;49.422;7.738;2023-06-22T04:11:37;17.77;;;13.13;;
54145;SDS011;65909;49.422;7.738;2023-06-22T04:14:02;17.27;;;12.52;;
54145;SDS011;65909;49.422;7.738;2023-06-22T04:16:27;14.43;;;11.38;;
54145;SDS011;65909;49.422;7.738;2023-06-22T04:18:53;16.15;;;12.38;;
54145;SDS011;65909;49.422;7.738;2023-06-22T04:21:18;18.48;;;12.48;;
54145;SDS011;65909;49.422;7.738;2023-06-22T04:23:47;14.40;;;11.77;;
54145;SDS011;65909;49.422;7.738;2023-06-22T04:26:13;17.10;;;11.65;;
54145;SDS011;65909;49.422;7.738;2023-06-22T04:28:39;17.13;;;10.50;;
54145;SDS011;65909;49.422;7.738;2023-06-22T04:31:05;15.73;;;11.20;;
54145;SDS011;65909;49.422;7.738;2023-06-22T04:33:30;14.45;;;11.32;;
54145;SDS011;65909;49.422;7.738;2023-06-22T04:35:56;13.73;;;10.70;;
54145;SDS011;65909;49.422;7.738;2023-06-22T04:38:28;13.45;;;10.52;;
54145;SDS011;65909;49.422;7.738;2023-06-22T04:40:58;18.35;;;10.35;;
54145;SDS011;65909;49.422;7.738;2023-06-22T04:43:24;14.40;;;10.30;;
54145;SDS011;65909;49.422;7.738;2023-06-22T04:45:50;19.30;;;12.43;;
54145;SDS011;65909;49.422;7.738;2023-06-22T04:48:17;15.07;;;11.95;;
54145;SDS011;65909;49.422;7.738;2023-06-22T04:50:42;16.83;;;10.95;;
54145;SDS011;65909;49.422;7.738;2023-06-22T04:53:09;13.73;;;10.85;;
54145;SDS011;65909;49.422;7.738;2023-06-22T04:55:37;14.65;;;11.00;;
54145;SDS011;65909;49.422;7.738;2023-06-22T04:58:06;13.95;;;10.70;;
54145;SDS011;65909;49.422;7.738;2023-06-22T05:00:32;14.98;;;10.52;;
54145;SDS011;65909;49.422;7.738;2023-06-22T05:02:57;14.90;;;10.80;;
54145;SDS011;65909;49.422;7.738;2023-06-22T05:05:24;15.77;;;11.32;;
54145;SDS011;65909;49.422;7.738;2023-06-22T05:07:50;14.15;;;10.32;;
54145;SDS011;65909;49.422;7.738;2023-06-22T05:10:18;16.23;;;9.98;;
54145;SDS011;65909;49.422;7.738;2023-06-22T05:12:44;17.40;;;10.80;;
54145;SDS011;65909;49.422;7.738;2023-06-22T05:15:09;13.40;;;9.43;;
54145;SDS011;65909;49.422;7.738;2023-06-22T05:17:36;15.88;;;11.75;;
54145;SDS011;65909;49.422;7.738;2023-06-22T05:20:02;16.02;;;10.35;;
54145;SDS011;65909;49.422;7.738;2023-06-22T05:22:31;14.57;;;10.60;;
54145;SDS011;65909;49.422;7.738;2023-06-22T05:24:56;11.68;;;9.75;;
54145;SDS011;65909;49.422;7.738;2023-06-22T05:27:22;14.52;;;10.20;;
54145;SDS011;65909;49.422;7.738;2023-06-22T05:29:47;14.35;;;10.50;;
54145;SDS011;65909;49.422;7.738;2023-06-22T05:32:12;12.93;;;10.02;;
54145;SDS011;65909;49.422;7.738;2023-06-22T05:34:38;15.35;;;10.30;;
54145;SDS011;65909;49.422;7.738;2023-06-22T05:37:03;13.05;;;9.50;;
54145;SDS011;65909;49.422;7.738;2023-06-22T05:39:29;13.77;;;9.90;;
54145;SDS011;65909;49.422;7.738;2023-06-22T05:41:54;15.32;;;9.48;;
54145;SDS011;65909;49.422;7.738;2023-06-22T05:44:19;14.77;;;9.23;;
54145;SDS011;65909;49.422;7.738;2023-06-22T05:46:45;15.82;;;9.80;;
54145;SDS011;65909;49.422;7.738;2023-06-22T05:49:12;12.25;;;9.73;;
54145;SDS011;65909;49.422;7.738;2023-06-22T05:51:37;11.93;;;9.70;;
54145;SDS011;65909;49.422;7.738;2023-06-22T05:54:03;12.15;;;10.38;;
54145;SDS011;65909;49.422;7.738;2023-06-22T05:56:28;15.43;;;10.05;;
54145;SDS011;65909;49.422;7.738;2023-06-22T05:58:54;18.35;;;10.95;;
54145;SDS011;65909;49.422;7.738;2023-06-22T06:01:19;16.92;;;9.55;;
54145;SDS011;65909;49.422;7.738;2023-06-22T06:03:45;17.95;;;10.07;;
54145;SDS011;65909;49.422;7.738;2023-06-22T06:06:11;14.18;;;9.77;;
54145;SDS011;65909;49.422;7.738;2023-06-22T06:08:37;11.35;;;9.07;;
54145;SDS011;65909;49.422;7.738;2023-06-22T06:11:03;10.38;;;8.80;;
54145;SDS011;65909;49.422;7.738;2023-06-22T06:13:28;11.95;;;8.90;;
54145;SDS011;65909;49.422;7.738;2023-06-22T06:15:53;12.85;;;7.85;;
54145;SDS011;65909;49.422;7.738;2023-06-22T06:18:20;11.32;;;8.48;;
54145;SDS011;65909;49.422;7.738;2023-06-22T06:20:46;12.90;;;8.65;;
54145;SDS011;65909;49.422;7.738;2023-06-22T06:23:11;10.90;;;7.97;;
54145;SDS011;65909;49.422;7.738;2023-06-22T06:25:37;13.13;;;8.82;;
54145;SDS011;65909;49.422;7.738;2023-06-22T06:28:02;13.35;;;8.95;;
54145;SDS011;65909;49.422;7.738;2023-06-22T06:30:28;11.02;;;8.63;;
54145;SDS011;65909;49.422;7.738;2023-06-22T06:32:53;12.15;;;8.77;;
54145;SDS011;65909;49.422;7.738;2023-06-22T06:35:19;9.95;;;7.20;;
54145;SDS011;65909;49.422;7.738;2023-06-22T06:37:45;10.32;;;7.75;;
54145;SDS011;65909;49.422;7.738;2023-06-22T06:40:14;11.55;;;7.85;;
54145;SDS011;65909;49.422;7.738;2023-06-22T06:42:41;9.52;;;7.88;;
54145;SDS011;65909;49.422;7.738;2023-06-22T06:45:09;10.55;;;6.80;;
54145;SDS011;65909;49.422;7.738;2023-06-22T06:47:35;11.52;;;6.95;;
54145;SDS011;65909;49.422;7.738;2023-06-22T06:50:02;8.13;;;6.85;;
54145;SDS011;65909;49.422;7.738;2023-06-22T06:52:29;9.73;;;7.63;;
54145;SDS011;65909;49.422;7.738;2023-06-22T06:54:54;11.88;;;7.22;;
54145;SDS011;65909;49.422;7.738;2023-06-22T06:57:19;9.20;;;7.10;;
54145;SDS011;65909;49.422;7.738;2023-06-22T06:59:45;7.47;;;6.20;;
54145;SDS011;65909;49.422;7.738;2023-06-22T07:02:11;7.63;;;6.68;;
54145;SDS011;65909;49.422;7.738;2023-06-22T07:04:36;7.80;;;7.00;;
54145;SDS011;65909;49.422;7.738;2023-06-22T07:07:02;9.75;;;7.15;;
54145;SDS011;65909;49.422;7.738;2023-06-22T07:09:28;8.40;;;6.93;;
54145;SDS011;65909;49.422;7.738;2023-06-22T07:11:53;8.52;;;6.93;;
54145;SDS011;65909;49.422;7.738;2023-06-22T07:14:19;9.75;;;6.97;;
54145;SDS011;65909;49.422;7.738;2023-06-22T07:16:45;7.63;;;6.68;;
54145;SDS011;65909;49.422;7.738;2023-06-22T07:19:13;7.97;;;6.35;;
54145;SDS011;65909;49.422;7.738;2023-06-22T07:21:38;10.48;;;7.55;;
54145;SDS011;65909;49.422;7.738;2023-06-22T07:24:04;9.45;;;6.93;;
54145;SDS011;65909;49.422;7.738;2023-06-22T07:26:31;8.00;;;7.00;;
54145;SDS011;65909;49.422;7.738;2023-06-22T07:28:59;10.25;;;7.00;;
54145;SDS011;65909;49.422;7.738;2023-06-22T07:31:25;8.50;;;6.97;;
54145;SDS011;65909;49.422;7.738;2023-06-22T07:33:50;10.38;;;6.65;;
54145;SDS011;65909;49.422;7.738;2023-06-22T07:36:16;9.18;;;7.07;;
54145;SDS011;65909;49.422;7.738;2023-06-22T07:38:42;11.18;;;6.47;;
54145;SDS011;65909;49.422;7.738;2023-06-22T07:41:08;9.98;;;6.80;;
54145;SDS011;65909;49.422;7.738;2023-06-22T07:43:33;10.23;;;6.82;;
54145;SDS011;65909;49.422;7.738;2023-06-22T07:46:01;8.52;;;6.78;;
54145;SDS011;65909;49.422;7.738;2023-06-22T07:48:30;8.85;;;6.57;;
54145;SDS011;65909;49.422;7.738;2023-06-22T07:50:55;9.80;;;6.00;;
54145;SDS011;65909;49.422;7.738;2023-06-22T07:53:21;7.75;;;6.65;;
54145;SDS011;65909;49.422;7.738;2023-06-22T07:55:48;8.32;;;6.03;;
54145;SDS011;65909;49.422;7.738;2023-06-22T07:58:13;7.03;;;6.38;;
54145;SDS011;65909;49.422;7.738;2023-06-22T08:00:39;10.13;;;6.30;;
54145;SDS011;65909;49.422;7.738;2023-06-22T08:03:04;11.98;;;6.82;;
54145;SDS011;65909;49.422;7.738;2023-06-22T08:05:30;6.60;;;5.93;;
54145;SDS011;65909;49.422;7.738;2023-06-22T08:07:56;6.28;;;5.60;;
54145;SDS011;65909;49.422;7.738;2023-06-22T08:10:22;8.35;;;5.68;;
54145;SDS011;65909;49.422;7.738;2023-06-22T08:12:47;8.23;;;5.60;;
54145;SDS011;65909;49.422;7.738;2023-06-22T08:15:12;6.13;;;5.53;;
54145;SDS011;65909;49.422;7.738;2023-06-22T08:17:38;7.40;;;5.85;;
54145;SDS011;65909;49.422;7.738;2023-06-22T08:20:04;7.18;;;5.97;;
54145;SDS011;65909;49.422;7.738;2023-06-22T08:22:34;6.43;;;5.65;;
54145;SDS011;65909;49.422;7.738;2023-06-22T08:25:01;6.47;;;5.85;;
54145;SDS011;65909;49.422;7.738;2023-06-22T08:27:28;8.32;;;5.70;;
54145;SDS011;65909;49.422;7.738;2023-06-22T08:29:54;6.13;;;5.45;;
54145;SDS011;65909;49.422;7.738;2023-06-22T08:32:23;6.32;;;5.72;;
54145;SDS011;65909;49.422;7.738;2023-06-22T08:34:48;6.30;;;5.70;;
54145;SDS011;65909;49.422;7.738;2023-06-22T08:37:14;8.07;;;5.60;;
54145;SDS011;65909;49.422;7.738;2023-06-22T08:39:39;6.78;;;6.18;;
54145;SDS011;65909;49.422;7.738;2023-06-22T08:42:06;7.25;;;5.75;;
54145;SDS011;65909;49.422;7.738;2023-06-22T08:44:31;6.22;;;5.53;;
54145;SDS011;65909;49.422;7.738;2023-06-22T08:46:57;6.70;;;6.10;;
54145;SDS011;65909;49.422;7.738;2023-06-22T08:49:22;7.53;;;5.72;;
54145;SDS011;65909;49.422;7.738;2023-06-22T08:51:47;6.70;;;6.00;;
54145;SDS011;65909;49.422;7.738;2023-06-22T08:54:14;6.72;;;5.55;;
54145;SDS011;65909;49.422;7.738;2023-06-22T08:56:39;7.07;;;5.82;;
54145;SDS011;65909;49.422;7.738;2023-06-22T08:59:05;6.40;;;5.80;;
54145;SDS011;65909;49.422;7.738;2023-06-22T09:01:32;7.50;;;6.30;;
54145;SDS011;65909;49.422;7.738;2023-06-22T09:03:58;8.25;;;5.63;;
54145;SDS011;65909;49.422;7.738;2023-06-22T09:06:24;6.55;;;5.95;;
54145;SDS011;65909;49.422;7.738;2023-06-22T09:08:50;6.47;;;5.50;;
54145;SDS011;65909;49.422;7.738;2023-06-22T09:11:16;6.93;;;5.72;;
54145;SDS011;65909;49.422;7.738;2023-06-22T09:13:41;6.53;;;5.70;;
54145;SDS011;65909;49.422;7.738;2023-06-22T09:16:07;6.88;;;5.45;;
54145;SDS011;65909;49.422;7.738;2023-06-22T09:18:33;6.47;;;5.82;;
54145;SDS011;65909;49.422;7.738;2023-06-22T09:20:59;6.90;;;5.65;;
54145;SDS011;65909;49.422;7.738;2023-06-22T09:23:26;7.70;;;6.60;;
54145;SDS011;65909;49.422;7.738;2023-06-22T09:25:51;6.95;;;5.95;;
54145;SDS011;65909;49.422;7.738;2023-06-22T09:28:16;6.55;;;5.93;;
54145;SDS011;65909;49.422;7.738;2023-06-22T09:30:45;6.55;;;5.85;;
54145;SDS011;65909;49.422;7.738;2023-06-22T09:33:10;7.30;;;6.20;;
54145;SDS011;65909;49.422;7.738;2023-06-22T09:35:36;6.90;;;6.20;;
54145;SDS011;65909;49.422;7.738;2023-06-22T09:38:01;7.95;;;6.05;;
54145;SDS011;65909;49.422;7.738;2023-06-22T09:40:26;6.60;;;5.88;;
54145;SDS011;65909;49.422;7.738;2023-06-22T09:42:52;7.07;;;5.53;;
54145;SDS011;65909;49.422;7.738;2023-06-22T09:45:17;8.05;;;5.80;;
54145;SDS011;65909;49.422;7.738;2023-06-22T09:47:42;6.60;;;5.45;;
54145;SDS011;65909;49.422;7.738;2023-06-22T09:50:08;6.78;;;5.80;;
54145;SDS011;65909;49.422;7.738;2023-06-22T09:52:33;6.80;;;5.80;;
54145;SDS011;65909;49.422;7.738;2023-06-22T09:54:59;6.35;;;5.75;;
54145;SDS011;65909;49.422;7.738;2023-06-22T09:57:24;7.43;;;5.95;;
54145;SDS011;65909;49.422;7.738;2023-06-22T09:59:50;6.20;;;5.63;;
54145;SDS011;65909;49.422;7.738;2023-06-22T10:02:15;6.90;;;5.88;;
54145;SDS011;65909;49.422;7.738;2023-06-22T10:04:41;6.68;;;5.97;;
54145;SDS011;65909;49.422;7.738;2023-06-22T10:07:06;6.75;;;5.60;;
54145;SDS011;65909;49.422;7.738;2023-06-22T10:09:32;7.15;;;6.13;;
54145;SDS011;65909;49.422;7.738;2023-06-22T10:11:57;8.57;;;6.10;;
54145;SDS011;65909;49.422;7.738;2023-06-22T10:14:23;6.47;;;5.78;;
54145;SDS011;65909;49.422;7.738;2023-06-22T10:16:50;7.72;;;5.95;;
54145;SDS011;65909;49.422;7.738;2023-06-22T10:19:17;8.82;;;6.05;;
54145;SDS011;65909;49.422;7.738;2023-06-22T10:21:42;6.93;;;5.65;;
54145;SDS011;65909;49.422;7.738;2023-06-22T10:24:08;9.07;;;6.13;;
54145;SDS011;65909;49.422;7.738;2023-06-22T10:26:34;9.07;;;5.90;;
54145;SDS011;65909;49.422;7.738;2023-06-22T10:29:01;6.07;;;4.93;;
54145;SDS011;65909;49.422;7.738;2023-06-22T10:31:27;5.78;;;4.93;;
54145;SDS011;65909;49.422;7.738;2023-06-22T10:33:53;5.93;;;4.97;;
54145;SDS011;65909;49.422;7.738;2023-06-22T10:36:19;7.38;;;5.15;;
54145;SDS011;65909;49.422;7.738;2023-06-22T10:38:45;6.45;;;5.20;;
54145;SDS011;65909;49.422;7.738;2023-06-22T10:41:12;5.38;;;4.85;;
54145;SDS011;65909;49.422;7.738;2023-06-22T10:43:37;7.32;;;6.07;;
54145;SDS011;65909;49.422;7.738;2023-06-22T10:46:03;6.30;;;5.70;;
54145;SDS011;65909;49.422;7.738;2023-06-22T10:48:28;6.25;;;5.15;;
54145;SDS011;65909;49.422;7.738;2023-06-22T10:50:53;9.52;;;5.68;;
54145;SDS011;65909;49.422;7.738;2023-06-22T10:53:19;5.80;;;5.07;;
54145;SDS011;65909;49.422;7.738;2023-06-22T10:55:45;6.43;;;5.20;;
54145;SDS011;65909;49.422;7.738;2023-06-22T10:58:10;5.38;;;4.88;;
54145;SDS011;65909;49.422;7.738;2023-06-22T11:00:35;6.03;;;5.25;;
54145;SDS011;65909;49.422;7.738;2023-06-22T11:03:01;6.85;;;5.13;;
54145;SDS011;65909;49.422;7.738;2023-06-22T11:05:26;8.43;;;5.20;;
54145;SDS011;65909;49.422;7.738;2023-06-22T11:07:51;7.00;;;5.28;;
54145;SDS011;65909;49.422;7.738;2023-06-22T11:10:17;5.90;;;5.32;;
54145;SDS011;65909;49.422;7.738;2023-06-22T11:12:42;8.68;;;5.35;;
54145;SDS011;65909;49.422;7.738;2023-06-22T11:15:08;8.43;;;5.32;;
54145;SDS011;65909;49.422;7.738;2023-06-22T11:17:34;5.75;;;4.95;;
54145;SDS011;65909;49.422;7.738;2023-06-22T11:19:59;5.85;;;5.25;;
54145;SDS011;65909;49.422;7.738;2023-06-22T11:22:25;8.85;;;5.70;;
54145;SDS011;65909;49.422;7.738;2023-06-22T11:24:50;11.23;;;5.72;;
54145;SDS011;65909;49.422;7.738;2023-06-22T11:27:16;7.93;;;5.28;;
54145;SDS011;65909;49.422;7.738;2023-06-22T11:29:41;8.30;;;5.07;;
54145;SDS011;65909;49.422;7.738;2023-06-22T11:32:07;7.70;;;5.55;;
54145;SDS011;65909;49.422;7.738;2023-06-22T11:34:32;7.20;;;5.50;;
54145;SDS011;65909;49.422;7.738;2023-06-22T11:36:58;7.43;;;4.95;;
54145;SDS011;65909;49.422;7.738;2023-06-22T11:39:23;7.93;;;6.03;;
54145;SDS011;65909;49.422;7.738;2023-06-22T11:41:48;7.70;;;5.65;;
54145;SDS011;65909;49.422;7.738;2023-06-22T11:44:14;8.38;;;5.70;;
54145;SDS011;65909;49.422;7.738;2023-06-22T11:46:39;9.52;;;5.63;;
54145;SDS011;65909;49.422;7.738;2023-06-22T11:49:04;8.50;;;5.55;;
54145;SDS011;65909;49.422;7.738;2023-06-22T11:51:30;7.90;;;5.35;;
54145;SDS011;65909;49.422;7.738;2023-06-22T11:53:56;8.00;;;5.80;;
54145;SDS011;65909;49.422;7.738;2023-06-22T11:56:22;9.57;;;5.38;;
54145;SDS011;65909;49.422;7.738;2023-06-22T11:58:47;7.70;;;6.00;;
54145;SDS011;65909;49.422;7.738;2023-06-22T12:01:13;6.97;;;5.45;;
54145;SDS011;65909;49.422;7.738;2023-06-22T12:03:40;8.43;;;5.63;;
54145;SDS011;65909;49.422;7.738;2023-06-22T12:06:05;7.25;;;5.70;;
54145;SDS011;65909;49.422;7.738;2023-06-22T12:08:30;7.80;;;5.97;;
54145;SDS011;65909;49.422;7.738;2023-06-22T12:10:56;9.20;;;5.65;;
54145;SDS011;65909;49.422;7.738;2023-06-22T12:13:21;9.70;;;6.22;;
54145;SDS011;65909;49.422;7.738;2023-06-22T12:15:46;7.65;;;5.60;;
54145;SDS011;65909;49.422;7.738;2023-06-22T12:18:12;7.97;;;6.00;;
54145;SDS011;65909;49.422;7.738;2023-06-22T12:20:39;9.20;;;6.07;;
54145;SDS011;65909;49.422;7.738;2023-06-22T12:23:05;7.38;;;5.55;;
54145;SDS011;65909;49.422;7.738;2023-06-22T12:25:30;8.10;;;5.50;;
54145;SDS011;65909;49.422;7.738;2023-06-22T12:27:56;9.98;;;5.90;;
54145;SDS011;65909;49.422;7.738;2023-06-22T12:30:21;8.63;;;6.38;;
54145;SDS011;65909;49.422;7.738;2023-06-22T12:32:47;12.07;;;5.93;;
54145;SDS011;65909;49.422;7.738;2023-06-22T12:35:12;8.23;;;5.85;;
54145;SDS011;65909;49.422;7.738;2023-06-22T12:37:41;8.07;;;5.88;;
54145;SDS011;65909;49.422;7.738;2023-06-22T12:40:07;7.57;;;5.93;;
54145;SDS011;65909;49.422;7.738;2023-06-22T12:42:33;11.77;;;6.30;;
54145;SDS011;65909;49.422;7.738;2023-06-22T12:44:58;12.00;;;6.72;;
54145;SDS011;65909;49.422;7.738;2023-06-22T12:47:24;7.78;;;6.15;;
54145;SDS011;65909;49.422;7.738;2023-06-22T12:49:49;12.52;;;5.97;;
54145;SDS011;65909;49.422;7.738;2023-06-22T12:52:15;11.45;;;6.78;;
54145;SDS011;65909;49.422;7.738;2023-06-22T12:54:40;9.40;;;6.40;;
54145;SDS011;65909;49.422;7.738;2023-06-22T12:57:06;7.28;;;6.55;;
54145;SDS011;65909;49.422;7.738;2023-06-22T12:59:31;8.65;;;6.25;;
54145;SDS011;65909;49.422;7.738;2023-06-22T13:01:56;13.15;;;6.72;;
54145;SDS011;65909;49.422;7.738;2023-06-22T13:04:22;11.73;;;6.60;;
54145;SDS011;65909;49.422;7.738;2023-06-22T13:06:47;8.32;;;6.13;;
54145;SDS011;65909;49.422;7.738;2023-06-22T13:09:17;7.40;;;6.25;;
54145;SDS011;65909;49.422;7.738;2023-06-22T13:11:47;9.60;;;6.65;;
54145;SDS011;65909;49.422;7.738;2023-06-22T13:14:12;11.30;;;6.47;;
54145;SDS011;65909;49.422;7.738;2023-06-22T13:16:38;12.57;;;6.13;;
54145;SDS011;65909;49.422;7.738;2023-06-22T13:19:03;11.65;;;6.18;;
54145;SDS011;65909;49.422;7.738;2023-06-22T13:21:29;7.03;;;5.38;;
54145;SDS011;65909;49.422;7.738;2023-06-22T13:23:55;11.60;;;5.70;;
54145;SDS011;65909;49.422;7.738;2023-06-22T13:26:21;9.85;;;5.88;;
54145;SDS011;65909;49.422;7.738;2023-06-22T13:28:47;7.53;;;5.50;;
54145;SDS011;65909;49.422;7.738;2023-06-22T13:31:12;9.80;;;6.00;;
54145;SDS011;65909;49.422;7.738;2023-06-22T13:33:38;7.78;;;6.53;;
54145;SDS011;65909;49.422;7.738;2023-06-22T13:36:03;10.75;;;6.18;;
54145;SDS011;65909;49.422;7.738;2023-06-22T13:38:31;14.50;;;6.35;;
54145;SDS011;65909;49.422;7.738;2023-06-22T13:40:57;9.13;;;5.88;;
54145;SDS011;65909;49.422;7.738;2023-06-22T13:43:24;10.38;;;5.78;;
54145;SDS011;65909;49.422;7.738;2023-06-22T13:45:51;13.20;;;6.35;;
54145;SDS011;65909;49.422;7.738;2023-06-22T13:48:17;7.78;;;5.70;;
54145;SDS011;65909;49.422;7.738;2023-06-22T13:50:43;9.38;;;6.10;;
54145;SDS011;65909;49.422;7.738;2023-06-22T13:53:08;8.73;;;5.47;;
54145;SDS011;65909;49.422;7.738;2023-06-22T13:55:33;10.85;;;6.30;;
54145;SDS011;65909;49.422;7.738;2023-06-22T13:57:59;8.05;;;5.70;;
54145;SDS011;65909;49.422;7.738;2023-06-22T14:00:24;9.13;;;5.97;;
54145;SDS011;65909;49.422;7.738;2023-06-22T14:02:52;9.60;;;5.97;;
54145;SDS011;65909;49.422;7.738;2023-06-22T14:05:18;9.75;;;6.00;;
54145;SDS011;65909;49.422;7.738;2023-06-22T14:07:43;9.85;;;5.85;;
54145;SDS011;65909;49.422;7.738;2023-06-22T14:10:09;10.07;;;5.82;;
54145;SDS011;65909;49.422;7.738;2023-06-22T14:12:34;9.23;;;5.68;;
54145;SDS011;65909;49.422;7.738;2023-06-22T14:15:00;10.30;;;5.88;;
54145;SDS011;65909;49.422;7.738;2023-06-22T14:17:25;8.95;;;5.72;;
54145;SDS011;65909;49.422;7.738;2023-06-22T14:19:51;10.80;;;5.82;;
54145;SDS011;65909;49.422;7.738;2023-06-22T14:22:20;8.88;;;6.25;;
54145;SDS011;65909;49.422;7.738;2023-06-22T14:24:49;8.95;;;5.80;;
54145;SDS011;65909;49.422;7.738;2023-06-22T14:27:15;8.10;;;6.30;;
54145;SDS011;65909;49.422;7.738;2023-06-22T14:29:41;9.20;;;5.72;;
54145;SDS011;65909;49.422;7.738;2023-06-22T14:32:07;11.55;;;5.57;;
54145;SDS011;65909;49.422;7.738;2023-06-22T14:34:33;10.35;;;6.70;;
54145;SDS011;65909;49.422;7.738;2023-06-22T14:37:01;7.70;;;5.25;;